createdAt,value
2023-02-04T00:00:43.324Z,7.30
2023-02-04T00:03:15.816Z,7.41
2023-02-04T00:06:03.837Z,7.40
2023-02-04T00:08:32.664Z,7.46
2023-02-04T00:11:03.184Z,7.40
2023-02-04T00:13:33.713Z,7.33
2023-02-04T00:16:07.749Z,7.35
2023-02-04T00:18:38.506Z,7.34
2023-02-04T00:21:19.852Z,7.31
2023-02-04T00:23:55.665Z,7.39
2023-02-04T00:26:27.710Z,7.29
2023-02-04T00:29:02.330Z,7.36
2023-02-04T00:31:36.907Z,7.38
2023-02-04T00:34:14.625Z,7.46
2023-02-04T00:36:50.250Z,7.40
2023-02-04T00:39:18.532Z,7.46
2023-02-04T00:41:48.376Z,7.44
2023-02-04T00:44:17.372Z,7.42
2023-02-04T00:46:48.784Z,7.54
2023-02-04T00:49:26.689Z,7.49
2023-02-04T00:52:03.982Z,7.46
2023-02-04T00:54:33.610Z,7.51
2023-02-04T00:57:14.649Z,7.52
2023-02-04T00:59:46.810Z,7.56
2023-02-04T01:02:18.653Z,7.47
2023-02-04T01:04:56.555Z,7.54
2023-02-04T01:07:30.989Z,7.63
2023-02-04T01:10:03.551Z,7.56
2023-02-04T01:12:32.912Z,7.56
2023-02-04T01:15:02.415Z,7.57
2023-02-04T01:17:31.586Z,7.60
2023-02-04T01:20:08.514Z,7.64
2023-02-04T01:22:54.719Z,7.63
2023-02-04T01:25:26.267Z,7.59
2023-02-04T01:27:57.432Z,7.57
2023-02-04T01:30:34.402Z,7.50
2023-02-04T01:33:04.636Z,7.44
2023-02-04T01:35:36.342Z,7.50
2023-02-04T01:38:08.675Z,7.47
2023-02-04T01:40:38.704Z,7.36
2023-02-04T01:43:07.777Z,7.33
2023-02-04T01:45:40.430Z,7.09
2023-02-04T01:48:13.273Z,7.19
2023-02-04T01:50:45.382Z,7.21
2023-02-04T01:53:18.122Z,7.18
2023-02-04T01:55:47.993Z,7.28
2023-02-04T01:58:24.365Z,7.14
2023-02-04T02:00:53.265Z,7.06
2023-02-04T02:03:25.355Z,7.24
2023-02-04T02:06:08.387Z,7.12
2023-02-04T02:08:47.360Z,7.16
2023-02-04T02:11:18.385Z,7.21
2023-02-04T02:13:47.808Z,7.29
2023-02-04T02:16:18.334Z,7.40
2023-02-04T02:18:50.193Z,7.45
2023-02-04T02:21:23.131Z,7.41
2023-02-04T02:24:00.214Z,7.44
2023-02-04T02:26:30.425Z,7.53
2023-02-04T02:28:59.559Z,7.65
2023-02-04T02:31:33.256Z,7.58
2023-02-04T02:34:08.765Z,7.56
2023-02-04T02:36:38.672Z,7.68
2023-02-04T02:39:15.478Z,7.59
2023-02-04T02:41:46.518Z,7.63
2023-02-04T02:44:19.317Z,7.57
2023-02-04T02:46:48.905Z,7.71
2023-02-04T02:49:28.972Z,7.70
2023-02-04T02:52:03.111Z,7.66
2023-02-04T02:54:38.209Z,7.65
2023-02-04T02:57:19.788Z,7.63
2023-02-04T02:59:49.756Z,7.75
2023-02-04T03:02:25.083Z,7.68
2023-02-04T03:04:57.111Z,7.70
2023-02-04T03:07:34.850Z,7.65
2023-02-04T03:10:10.206Z,7.70
2023-02-04T03:12:41.825Z,7.64
2023-02-04T03:15:16.474Z,7.61
2023-02-04T03:17:56.460Z,7.61
2023-02-04T03:20:31.813Z,7.59
2023-02-04T03:23:02.873Z,7.66
2023-02-04T03:25:37.762Z,7.53
2023-02-04T03:28:14.400Z,7.64
2023-02-04T03:30:43.911Z,7.43
2023-02-04T03:33:20.090Z,7.46
2023-02-04T03:36:03.122Z,7.46
2023-02-04T03:38:35.361Z,7.44
2023-02-04T03:41:17.069Z,7.40
2023-02-04T03:43:53.713Z,7.46
2023-02-04T03:46:24.340Z,7.42
2023-02-04T03:48:54.777Z,7.54
2023-02-04T03:51:28.305Z,7.48
2023-02-04T03:54:00.300Z,7.48
2023-02-04T03:56:32.454Z,7.35
2023-02-04T03:59:02.346Z,7.25
2023-02-04T04:01:33.260Z,6.97
2023-02-04T04:04:07.674Z,6.82
2023-02-04T04:06:39.898Z,6.81
2023-02-04T04:09:08.666Z,6.74
2023-02-04T04:11:45.076Z,6.67
2023-02-04T04:14:13.853Z,6.62
2023-02-04T04:16:46.497Z,6.39
2023-02-04T04:19:19.822Z,6.01
2023-02-04T04:21:56.756Z,5.90
2023-02-04T04:24:28.039Z,5.76
2023-02-04T04:27:00.714Z,5.75
2023-02-04T04:29:37.739Z,5.69
2023-02-04T04:32:07.006Z,5.64
2023-02-04T04:34:38.730Z,5.77
2023-02-04T04:37:10.241Z,5.68
2023-02-04T04:39:38.730Z,5.56
2023-02-04T04:42:08.158Z,5.18
2023-02-04T04:44:39.058Z,5.28
2023-02-04T04:47:10.779Z,5.32
2023-02-04T04:49:42.048Z,5.22
2023-02-04T04:52:17.341Z,5.35
2023-02-04T04:54:46.129Z,5.48
2023-02-04T04:57:20.917Z,5.44
2023-02-04T04:59:52.323Z,5.45
2023-02-04T05:02:21.446Z,5.37
2023-02-04T05:04:49.845Z,5.37
2023-02-04T05:07:21.847Z,5.40
2023-02-04T05:09:52.981Z,5.28
2023-02-04T05:12:22.745Z,5.24
2023-02-04T05:14:54.731Z,5.08
2023-02-04T05:17:24.401Z,5.09
2023-02-04T05:19:55.442Z,5.12
2023-02-04T05:22:26.950Z,5.09
2023-02-04T05:25:04.570Z,5.04
2023-02-04T05:27:36.355Z,5.07
2023-02-04T05:30:07.454Z,5.13
2023-02-04T05:32:38.256Z,5.03
2023-02-04T05:35:16.869Z,5.08
2023-02-04T05:37:53.730Z,5.06
2023-02-04T05:40:25.341Z,5.15
2023-02-04T05:43:04.886Z,5.01
2023-02-04T05:45:34.094Z,4.95
2023-02-04T05:48:03.758Z,4.98
2023-02-04T05:50:39.019Z,4.93
2023-02-04T05:53:26.092Z,4.98
2023-02-04T05:55:57.885Z,5.01
2023-02-04T05:58:40.050Z,4.95
2023-02-04T06:01:12.351Z,4.80
2023-02-04T06:03:51.309Z,4.80
2023-02-04T06:06:20.898Z,4.88
2023-02-04T06:08:57.458Z,4.82
2023-02-04T06:11:34.076Z,4.91
2023-02-04T06:14:20.518Z,4.95
2023-02-04T06:16:48.816Z,4.75
2023-02-04T06:19:20.499Z,4.83
2023-02-04T06:21:48.740Z,4.80
2023-02-04T06:24:20.640Z,4.85
2023-02-04T06:26:51.660Z,4.80
2023-02-04T06:29:33.197Z,4.81
2023-02-04T06:32:04.375Z,4.78
2023-02-04T06:34:35.522Z,4.82
2023-02-04T06:37:14.584Z,4.78
2023-02-04T06:39:51.226Z,4.73
2023-02-04T06:42:20.901Z,4.67
2023-02-04T06:45:04.870Z,4.64
2023-02-04T06:47:42.014Z,4.63
2023-02-04T06:50:19.800Z,4.66
2023-02-04T06:52:49.190Z,4.61
2023-02-04T06:55:19.159Z,4.69
2023-02-04T06:57:49.881Z,4.72
2023-02-04T07:00:30.488Z,4.77
2023-02-04T07:03:07.810Z,4.61
2023-02-04T07:05:44.752Z,4.31
2023-02-04T07:08:21.502Z,4.20
2023-02-04T07:10:53.934Z,4.32
2023-02-04T07:13:22.860Z,4.35
2023-02-04T07:16:07.073Z,4.25
2023-02-04T07:18:41.913Z,4.35
2023-02-04T07:21:12.962Z,4.11
2023-02-04T07:23:47.301Z,4.10
2023-02-04T07:26:18.641Z,3.96
2023-02-04T07:28:47.178Z,4.01
2023-02-04T07:31:23.563Z,3.97
2023-02-04T07:33:52.033Z,4.18
2023-02-04T07:36:20.895Z,4.15
2023-02-04T07:38:50.422Z,4.20
2023-02-04T07:41:21.658Z,4.32
2023-02-04T07:43:51.663Z,4.10
2023-02-04T07:46:23.498Z,4.35
2023-02-04T07:48:58.210Z,4.27
2023-02-04T07:51:29.069Z,4.14
2023-02-04T07:54:00.934Z,4.22
2023-02-04T07:56:32.584Z,4.02
2023-02-04T07:59:09.680Z,4.08
2023-02-04T08:01:47.097Z,3.82
2023-02-04T08:04:24.973Z,4.06
2023-02-04T08:06:53.844Z,3.74
2023-02-04T08:09:27.628Z,3.76
2023-02-04T08:12:03.267Z,3.59
2023-02-04T08:14:35.087Z,3.78
2023-02-04T08:17:07.783Z,3.49
2023-02-04T08:19:38.863Z,3.71
2023-02-04T08:22:25.811Z,3.62
2023-02-04T08:24:56.548Z,3.70
2023-02-04T08:27:25.154Z,3.62
2023-02-04T08:29:55.640Z,3.92
2023-02-04T08:32:31.833Z,3.58
2023-02-04T08:35:01.128Z,3.43
2023-02-04T08:37:34.052Z,3.67
2023-02-04T08:40:19.611Z,3.89
2023-02-04T08:42:50.890Z,3.68
2023-02-04T08:45:29.591Z,3.56
2023-02-04T08:48:03.308Z,3.83
2023-02-04T08:50:39.921Z,3.93
2023-02-04T08:53:09.289Z,3.88
2023-02-04T08:55:46.721Z,3.53
2023-02-04T08:58:16.025Z,3.74
2023-02-04T09:00:46.460Z,3.75
2023-02-04T09:03:27.650Z,3.90
2023-02-04T09:05:56.989Z,3.93
2023-02-04T09:08:27.643Z,4.08
2023-02-04T09:10:58.989Z,4.00
2023-02-04T09:13:33.264Z,4.02
2023-02-04T09:16:04.057Z,3.84
2023-02-04T09:18:37.085Z,3.99
2023-02-04T09:21:13.028Z,3.89
2023-02-04T09:23:49.299Z,3.82
2023-02-04T09:26:17.706Z,3.91
2023-02-04T09:28:45.984Z,4.17
2023-02-04T09:31:22.919Z,3.86
2023-02-04T09:33:54.118Z,3.90
2023-02-04T09:36:28.595Z,3.51
2023-02-04T09:38:58.278Z,3.37
2023-02-04T09:41:32.932Z,3.59
2023-02-04T09:44:05.640Z,3.47
2023-02-04T09:46:34.599Z,3.36
2023-02-04T09:49:05.809Z,3.28
2023-02-04T09:51:38.465Z,3.42
2023-02-04T09:54:19.720Z,3.49
2023-02-04T09:56:55.847Z,3.43
2023-02-04T09:59:30.968Z,3.77
2023-02-04T10:02:02.909Z,3.81
2023-02-04T10:04:35.974Z,3.74
2023-02-04T10:07:09.680Z,3.74
2023-02-04T10:09:43.266Z,3.92
2023-02-04T10:12:15.546Z,3.89
2023-02-04T10:14:45.623Z,3.57
2023-02-04T10:17:19.432Z,3.61
2023-02-04T10:20:02.940Z,3.85
2023-02-04T10:22:35.074Z,3.51
2023-02-04T10:25:15.844Z,3.30
2023-02-04T10:27:57.415Z,3.39
2023-02-04T10:30:28.771Z,3.52
2023-02-04T10:33:03.078Z,3.59
2023-02-04T10:35:48.030Z,3.68
2023-02-04T10:38:19.751Z,3.63
2023-02-04T10:40:50.403Z,3.65
2023-02-04T10:43:24.011Z,3.62
2023-02-04T10:46:12.272Z,3.62
2023-02-04T10:48:43.513Z,3.66
2023-02-04T10:51:15.733Z,3.87
2023-02-04T10:54:02.430Z,4.03
2023-02-04T10:56:40.457Z,4.01
2023-02-04T10:59:22.397Z,4.05
2023-02-04T11:01:52.085Z,4.07
2023-02-04T11:04:21.392Z,4.07
2023-02-04T11:06:55.635Z,4.16
2023-02-04T11:09:30.660Z,4.18
2023-02-04T11:12:04.122Z,4.25
2023-02-04T11:14:34.680Z,3.95
2023-02-04T11:17:03.591Z,4.06
2023-02-04T11:19:38.636Z,4.07
2023-02-04T11:22:23.080Z,3.75
2023-02-04T11:24:53.232Z,3.78
2023-02-04T11:27:30.559Z,3.89
2023-02-04T11:30:09.743Z,3.87
2023-02-04T11:32:51.009Z,3.78
2023-02-04T11:35:30.425Z,3.93
2023-02-04T11:38:38.728Z,4.24
2023-02-04T11:41:23.574Z,4.24
2023-02-04T11:43:55.429Z,4.43
2023-02-04T11:46:30.009Z,4.74
2023-02-04T11:49:01.040Z,4.32
2023-02-04T11:51:35.760Z,4.33
2023-02-04T11:54:26.057Z,4.50
2023-02-04T11:57:04.002Z,4.57
2023-02-04T11:59:34.421Z,4.40
2023-02-04T12:02:21.729Z,4.30
2023-02-04T12:05:00.440Z,4.21
2023-02-04T12:07:30.343Z,4.22
2023-02-04T12:10:21.074Z,4.06
2023-02-04T12:12:52.650Z,4.06
2023-02-04T12:15:26.799Z,4.15
2023-02-04T12:18:05.065Z,4.27
2023-02-04T12:20:35.352Z,4.29
2023-02-04T12:23:11.907Z,4.30
2023-02-04T12:25:49.536Z,4.19
2023-02-04T12:28:23.561Z,4.13
2023-02-04T12:30:52.069Z,3.96
2023-02-04T12:33:22.770Z,4.18
2023-02-04T12:35:53.582Z,4.04
2023-02-04T12:38:24.776Z,4.11
2023-02-04T12:41:05.734Z,4.09
2023-02-04T12:43:36.217Z,3.89
2023-02-04T12:46:07.333Z,3.90
2023-02-04T12:48:41.095Z,4.08
2023-02-04T12:51:18.617Z,4.10
2023-02-04T12:53:49.568Z,4.10
2023-02-04T12:56:36.528Z,3.85
2023-02-04T12:59:08.059Z,4.06
2023-02-04T13:01:44.892Z,4.21
2023-02-04T13:04:13.431Z,3.95
2023-02-04T13:06:47.347Z,3.94
2023-02-04T13:09:21.170Z,3.79
2023-02-04T13:11:55.216Z,3.61
2023-02-04T13:14:24.469Z,3.60
2023-02-04T13:16:56.188Z,3.48
2023-02-04T13:19:25.467Z,3.67
2023-02-04T13:21:55.258Z,3.67
2023-02-04T13:24:26.988Z,3.79
2023-02-04T13:26:58.980Z,3.72
2023-02-04T13:29:27.856Z,3.57
2023-02-04T13:32:02.611Z,3.60
2023-02-04T13:34:32.306Z,3.54
2023-02-04T13:37:01.234Z,3.54
2023-02-04T13:39:31.353Z,3.65
2023-02-04T13:42:09.135Z,3.63
2023-02-04T13:44:43.387Z,3.62
2023-02-04T13:47:14.902Z,3.60
2023-02-04T13:49:47.247Z,3.54
2023-02-04T13:52:20.556Z,3.37
2023-02-04T13:54:52.303Z,3.48
2023-02-04T13:57:26.995Z,3.54
2023-02-04T14:00:02.341Z,3.51
2023-02-04T14:02:44.693Z,3.33
2023-02-04T14:05:22.332Z,3.36
2023-02-04T14:07:53.607Z,3.39
2023-02-04T14:10:25.091Z,3.63
2023-02-04T14:12:57.094Z,3.46
2023-02-04T14:15:43.114Z,3.39
2023-02-04T14:18:14.425Z,3.31
2023-02-04T14:20:44.599Z,3.31
2023-02-04T14:23:21.612Z,3.42
2023-02-04T14:25:52.376Z,3.50
2023-02-04T14:28:23.342Z,3.43
2023-02-04T14:30:59.322Z,3.16
2023-02-04T14:33:30.789Z,3.44
2023-02-04T14:36:05.679Z,3.43
2023-02-04T14:38:42.435Z,3.47
2023-02-04T14:41:18.788Z,3.33
2023-02-04T14:43:52.673Z,3.51
2023-02-04T14:46:28.668Z,3.27
2023-02-04T14:49:00.282Z,3.42
2023-02-04T14:51:30.693Z,3.37
2023-02-04T14:54:05.248Z,3.53
2023-02-04T14:56:34.898Z,3.42
2023-02-04T14:59:10.667Z,3.29
2023-02-04T15:01:46.015Z,3.08
2023-02-04T15:04:18.573Z,3.29
2023-02-04T15:06:51.381Z,3.13
2023-02-04T15:09:20.577Z,3.33
2023-02-04T15:11:50.165Z,3.48
2023-02-04T15:14:24.400Z,3.34
2023-02-04T15:16:54.251Z,3.21
2023-02-04T15:19:29.334Z,3.40
2023-02-04T15:21:58.519Z,3.57
2023-02-04T15:24:29.554Z,3.24
2023-02-04T15:26:58.484Z,3.28
2023-02-04T15:29:39.542Z,3.39
2023-02-04T15:32:16.091Z,3.39
2023-02-04T15:34:52.838Z,3.23
2023-02-04T15:37:26.728Z,3.26
2023-02-04T15:39:57.033Z,3.46
2023-02-04T15:42:26.577Z,3.45
2023-02-04T15:45:00.322Z,3.36
2023-02-04T15:47:32.161Z,3.03
2023-02-04T15:50:01.398Z,3.18
2023-02-04T15:52:33.183Z,3.24
2023-02-04T15:55:05.019Z,2.93
2023-02-04T15:57:43.266Z,3.20
2023-02-04T16:00:27.662Z,3.01
2023-02-04T16:02:56.958Z,3.11
2023-02-04T16:05:29.493Z,3.16
2023-02-04T16:08:05.415Z,2.95
2023-02-04T16:10:38.985Z,3.19
2023-02-04T16:13:18.168Z,3.05
2023-02-04T16:16:05.190Z,3.04
2023-02-04T16:18:46.487Z,3.19
2023-02-04T16:21:29.316Z,3.19
2023-02-04T16:23:59.149Z,3.14
2023-02-04T16:26:30.115Z,3.05
2023-02-04T16:28:59.580Z,2.91
2023-02-04T16:31:33.208Z,2.91
2023-02-04T16:34:13.554Z,2.87
2023-02-04T16:36:48.357Z,2.99
2023-02-04T16:39:21.211Z,2.82
2023-02-04T16:41:53.722Z,3.08
2023-02-04T16:44:25.845Z,2.86
2023-02-04T16:47:06.442Z,2.91
2023-02-04T16:49:45.982Z,3.04
2023-02-04T16:52:24.787Z,2.96
2023-02-04T16:54:57.170Z,3.00
2023-02-04T16:57:28.428Z,3.05
2023-02-04T17:00:06.332Z,3.03
2023-02-04T17:02:40.371Z,3.23
2023-02-04T17:05:17.042Z,3.05
2023-02-04T17:07:45.789Z,2.95
2023-02-04T17:10:38.080Z,3.10
2023-02-04T17:13:09.172Z,3.12
2023-02-04T17:15:38.676Z,3.00
2023-02-04T17:18:14.571Z,3.02
2023-02-04T17:20:44.820Z,2.97
2023-02-04T17:23:18.952Z,3.07
2023-02-04T17:25:52.084Z,3.13
2023-02-04T17:28:24.369Z,2.90
2023-02-04T17:31:08.325Z,2.95
2023-02-04T17:33:48.885Z,2.95
2023-02-04T17:36:23.365Z,2.89
2023-02-04T17:38:59.415Z,2.98
2023-02-04T17:41:30.782Z,3.04
2023-02-04T17:44:07.156Z,2.99
2023-02-04T17:46:37.184Z,3.19
2023-02-04T17:49:10.738Z,3.10
2023-02-04T17:51:50.413Z,3.04
2023-02-04T17:54:21.751Z,2.96
2023-02-04T17:56:52.544Z,3.07
2023-02-04T17:59:39.773Z,3.02
2023-02-04T18:02:32.228Z,2.93
2023-02-04T18:05:20.365Z,3.11
2023-02-04T18:07:57.905Z,2.92
2023-02-04T18:10:35.366Z,2.92
2023-02-04T18:13:15.766Z,2.87
2023-02-04T18:15:55.198Z,2.64
2023-02-04T18:18:42.451Z,2.77
2023-02-04T18:21:22.230Z,2.82
2023-02-04T18:24:07.289Z,2.89
2023-02-04T18:26:38.480Z,2.77
2023-02-04T18:29:25.081Z,2.75
2023-02-04T18:32:08.737Z,2.92
2023-02-04T18:34:43.915Z,2.74
2023-02-04T18:40:27.501Z,2.96
2023-02-04T18:43:22.988Z,2.65
2023-02-04T18:45:59.253Z,2.53
2023-02-04T18:49:09.017Z,2.75
2023-02-04T18:51:41.301Z,2.52
2023-02-04T18:54:47.769Z,2.76
2023-02-04T18:57:42.457Z,2.81
2023-02-04T19:00:35.147Z,2.75
2023-02-04T19:03:22.195Z,2.86
2023-02-04T19:05:52.627Z,2.77
2023-02-04T19:08:47.646Z,2.63
2023-02-04T19:11:37.327Z,2.79
2023-02-04T19:14:22.380Z,2.81
2023-02-04T19:17:04.104Z,2.90
2023-02-04T19:19:41.653Z,2.89
2023-02-04T19:22:32.956Z,2.90
2023-02-04T19:25:27.831Z,2.85
2023-02-04T19:28:04.474Z,2.88
2023-02-04T19:30:58.700Z,2.71
2023-02-04T19:33:42.770Z,2.71
2023-02-04T19:36:48.075Z,2.79
2023-02-04T19:39:38.198Z,2.77
2023-02-04T19:42:28.630Z,2.98
2023-02-04T19:45:18.770Z,2.70
2023-02-04T19:47:58.295Z,2.77
2023-02-04T19:50:36.710Z,2.87
2023-02-04T19:53:18.842Z,2.79
2023-02-04T19:55:48.872Z,2.61
2023-02-04T19:58:31.583Z,2.82
2023-02-04T20:01:14.572Z,2.63
2023-02-04T20:03:49.077Z,2.80
2023-02-04T20:06:34.529Z,2.96
2023-02-04T20:09:14.734Z,3.03
2023-02-04T20:12:13.412Z,3.03
2023-02-04T20:14:49.769Z,3.02
2023-02-04T20:17:48.669Z,3.00
2023-02-04T20:20:28.768Z,2.78
2023-02-04T20:23:11.829Z,2.51
2023-02-04T20:25:47.748Z,2.45
2023-02-04T20:28:45.929Z,2.43
2023-02-04T20:31:24.556Z,2.12
2023-02-04T20:34:03.333Z,2.06
2023-02-04T20:36:46.104Z,2.26
2023-02-04T20:42:39.347Z,2.07
2023-02-04T20:45:44.594Z,1.83
2023-02-04T20:48:36.423Z,1.24
2023-02-04T20:51:37.561Z,1.28
2023-02-04T20:54:13.552Z,1.42
2023-02-04T20:56:59.557Z,1.39
2023-02-04T20:59:44.560Z,1.12
2023-02-04T21:02:21.668Z,0.80
2023-02-04T21:04:54.814Z,0.82
2023-02-04T21:07:46.596Z,0.82
2023-02-04T21:10:18.181Z,0.86
2023-02-04T21:12:53.549Z,1.08
2023-02-04T21:15:26.006Z,1.26
2023-02-04T21:17:57.408Z,1.09
2023-02-04T21:20:26.639Z,0.81
2023-02-04T21:23:08.492Z,0.86
2023-02-04T21:25:41.459Z,0.77
2023-02-04T21:28:12.084Z,0.86
2023-02-04T21:30:41.898Z,0.93
2023-02-04T21:33:14.020Z,0.86
2023-02-04T21:35:48.861Z,0.99
2023-02-04T21:38:26.490Z,0.99
2023-02-04T21:40:57.287Z,1.26
2023-02-04T21:43:27.081Z,1.26
2023-02-04T21:46:01.905Z,1.24
2023-02-04T21:48:38.293Z,1.37
2023-02-04T21:51:19.454Z,1.48
2023-02-04T21:53:52.349Z,1.42
2023-02-04T21:56:23.145Z,1.36
2023-02-04T21:58:53.998Z,1.54
2023-02-04T22:01:24.514Z,1.51
2023-02-04T22:03:58.952Z,1.52
2023-02-04T22:06:31.131Z,1.37
2023-02-04T22:09:02.263Z,1.59
2023-02-04T22:11:38.817Z,1.44
2023-02-04T22:14:28.658Z,1.67
2023-02-04T22:16:58.409Z,1.69
2023-02-04T22:19:27.355Z,1.50
2023-02-04T22:21:59.475Z,1.50
2023-02-04T22:24:34.107Z,1.36
2023-02-04T22:27:08.442Z,1.28
2023-02-04T22:29:43.868Z,1.31
2023-02-04T22:32:13.277Z,1.40
2023-02-04T22:34:47.262Z,1.25
2023-02-04T22:37:27.259Z,1.18
2023-02-04T22:40:05.694Z,1.05
2023-02-04T22:42:38.234Z,1.24
2023-02-04T22:45:08.240Z,1.07
2023-02-04T22:47:44.831Z,1.32
2023-02-04T22:50:18.137Z,1.21
2023-02-04T22:52:49.490Z,1.13
2023-02-04T22:55:21.693Z,1.12
2023-02-04T22:57:51.927Z,1.26
2023-02-04T23:00:35.178Z,1.19
2023-02-04T23:03:15.190Z,1.34
2023-02-04T23:05:56.577Z,1.16
2023-02-04T23:08:28.693Z,1.18
2023-02-04T23:11:06.728Z,1.19
2023-02-04T23:13:36.729Z,1.14
2023-02-04T23:16:14.278Z,1.11
2023-02-04T23:18:46.643Z,1.27
2023-02-04T23:21:17.320Z,1.27
2023-02-04T23:23:49.384Z,1.04
2023-02-04T23:26:30.188Z,1.07
2023-02-04T23:29:02.397Z,1.07
2023-02-04T23:31:39.197Z,1.28
2023-02-04T23:34:10.732Z,1.30
2023-02-04T23:36:40.530Z,1.37
2023-02-04T23:39:20.966Z,1.28
2023-02-04T23:41:52.871Z,1.50
2023-02-04T23:44:22.953Z,1.44
2023-02-04T23:46:54.644Z,1.39
2023-02-04T23:49:29.787Z,1.24
2023-02-04T23:51:58.282Z,1.29
2023-02-04T23:54:36.783Z,1.29
2023-02-04T23:57:06.526Z,1.30
2023-02-04T23:59:42.851Z,1.47
